createdAt,value
2018-04-26T00:01:12.772Z,8.80
2018-04-26T00:03:40.405Z,8.70
2018-04-26T00:06:07.994Z,8.70
2018-04-26T00:08:35.702Z,8.70
2018-04-26T00:11:03.367Z,8.60
2018-04-26T00:13:32.356Z,8.60
2018-04-26T00:16:00.186Z,8.50
2018-04-26T00:18:27.795Z,8.50
2018-04-26T00:20:55.461Z,8.60
2018-04-26T00:23:23.111Z,8.50
2018-04-26T00:25:51.267Z,8.40
2018-04-26T00:28:20.633Z,8.40
2018-04-26T00:30:48.277Z,8.30
2018-04-26T00:33:15.917Z,8.50
2018-04-26T00:35:43.529Z,8.40
2018-04-26T00:38:11.126Z,8.40
2018-04-26T00:40:38.702Z,8.30
2018-04-26T00:43:07.310Z,8.30
2018-04-26T00:45:35.422Z,8.30
2018-04-26T00:48:03.401Z,8.30
2018-04-26T00:50:31.683Z,8.30
2018-04-26T00:52:59.269Z,8.20
2018-04-26T00:55:28.116Z,8.30
2018-04-26T00:57:57.077Z,8.30
2018-04-26T01:00:24.823Z,8.30
2018-04-26T01:02:54.035Z,8.20
2018-04-26T01:05:22.692Z,8.20
2018-04-26T01:07:51.101Z,8.10
2018-04-26T01:10:18.807Z,8.10
2018-04-26T01:12:46.406Z,8.10
2018-04-26T01:15:14.767Z,8.20
2018-04-26T01:17:42.409Z,8.20
2018-04-26T01:20:10.156Z,8.20
2018-04-26T01:22:37.765Z,8.20
2018-04-26T01:25:05.495Z,8.20
2018-04-26T01:27:33.560Z,8.20
2018-04-26T01:30:02.492Z,8.20
2018-04-26T01:32:30.250Z,8.10
2018-04-26T01:34:58.700Z,8.10
2018-04-26T01:37:38.252Z,8.10
2018-04-26T01:40:05.859Z,8.00
2018-04-26T01:42:33.676Z,8.00
2018-04-26T01:45:01.266Z,8.00
2018-04-26T01:47:28.855Z,7.90
2018-04-26T01:49:56.777Z,7.90
2018-04-26T01:52:24.464Z,7.90
2018-04-26T01:54:52.187Z,7.90
2018-04-26T01:57:20.647Z,7.80
2018-04-26T01:59:48.346Z,7.70
2018-04-26T02:02:18.835Z,7.80
2018-04-26T02:04:48.068Z,7.80
2018-04-26T02:07:16.552Z,7.80
2018-04-26T02:09:45.738Z,7.70
2018-04-26T02:12:14.853Z,7.70
2018-04-26T02:14:42.537Z,7.70
2018-04-26T02:20:03.375Z,7.70
2018-04-26T02:22:31.840Z,7.70
2018-04-26T02:24:59.527Z,7.60
2018-04-26T02:27:28.076Z,7.70
2018-04-26T02:29:55.798Z,7.60
2018-04-26T02:32:23.609Z,7.70
2018-04-26T02:34:51.224Z,7.60
2018-04-26T02:37:18.863Z,7.60
2018-04-26T02:39:47.444Z,7.60
2018-04-26T02:42:15.070Z,7.60
2018-04-26T02:44:42.751Z,7.60
2018-04-26T02:47:10.377Z,7.60
2018-04-26T02:49:38.785Z,7.60
2018-04-26T02:52:07.665Z,7.50
2018-04-26T02:54:35.291Z,7.60
2018-04-26T02:57:03.055Z,7.50
2018-04-26T02:59:31.527Z,7.60
2018-04-26T03:01:59.146Z,7.50
2018-04-26T03:04:26.801Z,7.60
2018-04-26T03:06:54.416Z,7.60
2018-04-26T03:09:23.302Z,7.70
2018-04-26T03:11:52.017Z,7.60
2018-04-26T03:14:19.638Z,7.60
2018-04-26T03:16:47.247Z,7.50
2018-04-26T03:19:14.920Z,7.50
2018-04-26T03:21:44.985Z,7.50
2018-04-26T03:24:13.378Z,7.50
2018-04-26T03:26:41.025Z,7.50
2018-04-26T03:29:08.716Z,7.50
2018-04-26T03:31:36.389Z,7.60
2018-04-26T03:34:04.088Z,7.60
2018-04-26T03:36:31.771Z,7.60
2018-04-26T03:38:59.348Z,7.60
2018-04-26T03:41:27.052Z,7.60
2018-04-26T03:43:56.487Z,7.50
2018-04-26T03:46:24.114Z,7.50
2018-04-26T03:48:53.014Z,7.50
2018-04-26T03:51:20.663Z,7.60
2018-04-26T03:53:48.293Z,7.70
2018-04-26T03:56:16.695Z,7.70
2018-04-26T03:58:45.126Z,7.70
2018-04-26T04:04:27.274Z,7.70
2018-04-26T04:06:54.890Z,7.70
2018-04-26T04:09:23.316Z,7.70
2018-04-26T04:11:50.973Z,7.60
2018-04-26T04:14:19.499Z,7.60
2018-04-26T04:16:47.922Z,7.70
2018-04-26T04:19:15.504Z,7.60
2018-04-26T04:21:43.152Z,7.70
2018-04-26T04:24:10.751Z,7.70
2018-04-26T04:26:38.408Z,7.70
2018-04-26T04:29:06.353Z,7.70
2018-04-26T04:31:33.977Z,7.60
2018-04-26T04:34:01.612Z,7.60
2018-04-26T04:36:29.238Z,7.60
2018-04-26T04:38:56.845Z,7.60
2018-04-26T04:41:24.527Z,7.60
2018-04-26T04:43:52.137Z,7.60
2018-04-26T04:46:19.768Z,7.60
2018-04-26T04:48:47.417Z,7.60
2018-04-26T04:51:15.851Z,7.60
2018-04-26T04:53:43.498Z,7.60
2018-04-26T04:56:11.924Z,7.70
2018-04-26T04:58:40.295Z,7.70
2018-04-26T05:01:07.997Z,7.60
2018-04-26T05:03:36.384Z,7.70
2018-04-26T05:06:04.008Z,7.70
2018-04-26T05:08:32.476Z,7.80
2018-04-26T05:11:00.123Z,7.70
2018-04-26T05:13:27.773Z,7.80
2018-04-26T05:15:56.168Z,7.80
2018-04-26T05:18:24.602Z,7.80
2018-04-26T05:20:52.311Z,7.70
2018-04-26T05:23:19.923Z,7.70
2018-04-26T05:25:47.557Z,7.70
2018-04-26T05:28:15.188Z,7.70
2018-04-26T05:30:42.960Z,7.70
2018-04-26T05:33:10.730Z,7.70
2018-04-26T05:35:38.325Z,7.70
2018-04-26T05:38:05.968Z,7.70
2018-04-26T05:40:33.747Z,7.70
2018-04-26T05:43:01.340Z,7.70
2018-04-26T05:45:29.009Z,7.70
2018-04-26T05:47:57.794Z,7.70
2018-04-26T05:50:25.561Z,7.70
2018-04-26T05:52:53.212Z,7.70
2018-04-26T05:55:20.847Z,7.80
2018-04-26T05:57:48.537Z,7.90
2018-04-26T06:00:16.146Z,7.90
2018-04-26T06:02:44.644Z,8.00
2018-04-26T06:05:12.939Z,7.90
2018-04-26T06:07:41.382Z,7.90
2018-04-26T06:10:09.109Z,7.80
2018-04-26T06:12:36.795Z,7.80
2018-04-26T06:15:05.188Z,7.60
2018-04-26T06:17:32.848Z,7.60
2018-04-26T06:20:08.342Z,7.70
2018-04-26T06:22:35.928Z,7.60
2018-04-26T06:25:03.636Z,7.60
2018-04-26T06:30:25.015Z,7.70
2018-04-26T06:32:52.662Z,7.80
2018-04-26T06:35:20.283Z,7.80
2018-04-26T06:37:48.666Z,8.00
2018-04-26T06:40:16.316Z,7.90
2018-04-26T06:42:43.938Z,8.00
2018-04-26T06:45:12.328Z,8.10
2018-04-26T06:47:39.932Z,8.00
2018-04-26T06:50:08.324Z,8.10
2018-04-26T06:52:35.975Z,8.10
2018-04-26T06:55:03.585Z,8.20
2018-04-26T06:57:31.807Z,8.30
2018-04-26T07:00:00.182Z,8.20
2018-04-26T07:02:27.862Z,8.20
2018-04-26T07:04:55.514Z,8.30
2018-04-26T07:07:23.929Z,8.50
2018-04-26T07:09:51.544Z,8.50
2018-04-26T07:12:19.143Z,8.60
2018-04-26T07:14:46.768Z,8.60
2018-04-26T07:17:15.031Z,8.70
2018-04-26T07:19:42.653Z,8.70
2018-04-26T07:22:10.338Z,8.70
2018-04-26T07:24:37.967Z,8.80
2018-04-26T07:27:06.404Z,8.90
2018-04-26T07:29:34.017Z,8.80
2018-04-26T07:32:01.769Z,8.90
2018-04-26T07:34:29.602Z,8.90
2018-04-26T07:36:57.321Z,8.90
2018-04-26T07:39:26.280Z,9.00
2018-04-26T07:41:53.946Z,9.00
2018-04-26T07:44:21.587Z,9.00
2018-04-26T07:46:50.007Z,9.00
2018-04-26T07:49:18.399Z,9.00
2018-04-26T07:51:46.042Z,8.90
2018-04-26T07:54:13.657Z,8.90
2018-04-26T07:56:41.272Z,9.00
2018-04-26T07:59:10.054Z,9.10
2018-04-26T08:01:38.209Z,9.10
2018-04-26T08:04:05.844Z,9.10
2018-04-26T08:06:33.546Z,8.80
2018-04-26T08:09:01.989Z,8.40
2018-04-26T08:11:29.663Z,8.40
2018-04-26T08:13:57.333Z,8.30
2018-04-26T08:16:24.978Z,8.00
2018-04-26T08:18:52.659Z,7.90
2018-04-26T08:21:20.359Z,7.80
2018-04-26T08:23:48.867Z,7.70
2018-04-26T08:26:16.536Z,7.50
2018-04-26T08:28:44.788Z,7.50
2018-04-26T08:31:13.178Z,7.40
2018-04-26T08:33:41.529Z,7.50
2018-04-26T08:36:09.131Z,7.40
2018-04-26T08:38:37.217Z,7.30
2018-04-26T08:41:05.224Z,7.30
2018-04-26T08:43:33.554Z,7.00
2018-04-26T08:46:01.246Z,6.90
2018-04-26T08:48:29.577Z,6.70
2018-04-26T08:50:57.138Z,6.70
2018-04-26T08:53:24.733Z,7.00
2018-04-26T08:55:53.413Z,7.10
2018-04-26T08:58:21.938Z,7.40
2018-04-26T09:00:49.863Z,7.30
2018-04-26T09:03:18.332Z,7.60
2018-04-26T09:05:47.063Z,7.70
2018-04-26T09:08:15.642Z,7.60
2018-04-26T09:10:44.364Z,7.70
2018-04-26T09:13:12.272Z,7.70
2018-04-26T09:15:39.952Z,7.90
2018-04-26T09:18:07.777Z,8.00
2018-04-26T09:20:35.705Z,7.90
2018-04-26T09:23:04.145Z,8.20
2018-04-26T09:25:31.918Z,8.10
2018-04-26T09:28:00.465Z,8.40
2018-04-26T09:30:28.193Z,8.30
2018-04-26T09:32:57.317Z,8.70
2018-04-26T09:35:24.948Z,8.60
2018-04-26T09:37:53.377Z,8.90
2018-04-26T09:40:21.737Z,9.10
2018-04-26T09:42:50.434Z,9.20
2018-04-26T09:45:19.021Z,9.10
2018-04-26T09:47:46.680Z,9.10
2018-04-26T09:50:15.071Z,9.30
2018-04-26T09:52:42.794Z,9.20
2018-04-26T09:55:10.666Z,9.40
2018-04-26T09:57:38.326Z,9.50
2018-04-26T10:00:06.636Z,9.40
2018-04-26T10:02:41.109Z,9.50
2018-04-26T10:05:11.055Z,9.60
2018-04-26T10:07:38.663Z,9.80
2018-04-26T10:10:07.613Z,9.70
2018-04-26T10:12:35.280Z,9.70
2018-04-26T10:15:03.080Z,9.80
2018-04-26T10:17:30.698Z,9.90
2018-04-26T10:19:59.581Z,10.00
2018-04-26T10:22:27.338Z,9.90
2018-04-26T10:24:55.702Z,10.00
2018-04-26T10:27:23.408Z,9.90
2018-04-26T10:29:51.392Z,9.90
2018-04-26T10:32:19.046Z,10.00
2018-04-26T10:34:46.659Z,10.10
2018-04-26T10:37:15.095Z,10.20
2018-04-26T10:39:43.508Z,10.20
2018-04-26T10:42:12.024Z,10.20
2018-04-26T10:44:44.156Z,10.20
2018-04-26T10:47:11.783Z,10.20
2018-04-26T10:49:39.376Z,10.40
2018-04-26T10:52:07.017Z,10.80
2018-04-26T10:54:35.530Z,11.00
2018-04-26T10:57:03.898Z,11.00
2018-04-26T10:59:32.354Z,10.90
2018-04-26T11:02:01.062Z,10.80
2018-04-26T11:04:28.660Z,10.90
2018-04-26T11:06:56.338Z,10.80
2018-04-26T11:09:25.267Z,10.70
2018-04-26T11:11:52.891Z,10.60
2018-04-26T11:14:20.502Z,10.60
2018-04-26T11:16:48.086Z,10.70
2018-04-26T11:19:16.176Z,10.80
2018-04-26T11:21:43.828Z,11.10
2018-04-26T11:24:11.440Z,11.10
2018-04-26T11:26:39.882Z,11.20
2018-04-26T11:29:08.251Z,11.20
2018-04-26T11:31:35.952Z,11.10
2018-04-26T11:34:04.482Z,11.30
2018-04-26T11:36:32.119Z,11.20
2018-04-26T11:38:59.742Z,11.20
2018-04-26T11:41:27.370Z,11.00
2018-04-26T11:43:55.067Z,10.80
2018-04-26T11:46:23.509Z,10.40
2018-04-26T11:48:51.876Z,10.20
2018-04-26T11:51:19.547Z,9.80
2018-04-26T11:53:47.211Z,9.40
2018-04-26T11:56:15.760Z,8.90
2018-04-26T11:58:43.428Z,8.90
2018-04-26T12:01:11.139Z,8.90
2018-04-26T12:03:38.856Z,9.10
2018-04-26T12:06:06.551Z,9.20
2018-04-26T12:08:35.058Z,9.80
2018-04-26T12:11:04.175Z,9.70
2018-04-26T12:13:36.243Z,10.20
2018-04-26T12:16:08.782Z,10.90
2018-04-26T12:18:38.378Z,11.20
2018-04-26T12:21:06.237Z,11.20
2018-04-26T12:23:33.996Z,11.40
2018-04-26T12:26:02.291Z,11.40
2018-04-26T12:31:04.689Z,11.00
2018-04-26T12:33:32.361Z,10.90
2018-04-26T12:36:00.406Z,10.80
2018-04-26T12:38:28.931Z,11.10
2018-04-26T12:40:56.687Z,11.40
2018-04-26T12:43:25.162Z,11.80
2018-04-26T12:45:52.763Z,11.80
2018-04-26T12:48:21.786Z,12.00
2018-04-26T12:50:50.264Z,11.60
2018-04-26T12:53:18.045Z,11.50
2018-04-26T12:55:46.624Z,11.30
2018-04-26T12:58:15.657Z,11.00
2018-04-26T13:00:47.260Z,11.00
2018-04-26T13:03:16.981Z,10.90
2018-04-26T13:05:45.502Z,10.80
2018-04-26T13:08:13.870Z,11.20
2018-04-26T13:11:02.700Z,11.50
2018-04-26T13:13:32.248Z,11.70
2018-04-26T13:18:48.385Z,12.30
2018-04-26T13:21:16.644Z,12.30
2018-04-26T13:23:44.584Z,12.30
2018-04-26T13:26:12.285Z,12.50
2018-04-26T13:28:40.043Z,12.70
2018-04-26T13:31:08.098Z,12.60
2018-04-26T13:33:36.573Z,12.80
2018-04-26T13:36:05.011Z,13.00
2018-04-26T13:38:34.858Z,13.00
2018-04-26T13:41:03.278Z,13.10
2018-04-26T13:43:31.790Z,13.20
2018-04-26T13:45:59.437Z,13.20
2018-04-26T13:48:28.180Z,13.40
2018-04-26T13:50:56.655Z,13.30
2018-04-26T13:53:25.292Z,13.20
2018-04-26T13:55:53.000Z,13.00
2018-04-26T13:58:22.906Z,12.90
2018-04-26T14:00:51.745Z,12.70
2018-04-26T14:03:19.412Z,12.60
2018-04-26T14:05:48.118Z,12.50
2018-04-26T14:08:17.515Z,12.30
2018-04-26T14:13:18.947Z,12.60
2018-04-26T14:15:48.924Z,12.80
2018-04-26T14:18:17.336Z,13.50
2018-04-26T14:20:45.558Z,13.40
2018-04-26T14:23:13.293Z,13.70
2018-04-26T14:25:41.550Z,13.90
2018-04-26T14:31:06.875Z,14.20
2018-04-26T14:33:34.506Z,14.40
2018-04-26T14:36:02.204Z,14.20
2018-04-26T14:38:30.464Z,14.30
2018-04-26T14:41:00.425Z,14.30
2018-04-26T14:43:28.489Z,14.10
2018-04-26T14:45:56.192Z,14.00
2018-04-26T14:48:23.827Z,13.70
2018-04-26T14:50:51.591Z,13.60
2018-04-26T14:53:23.781Z,13.60
2018-04-26T14:55:51.699Z,13.50
2018-04-26T14:58:21.222Z,13.30
2018-04-26T15:00:51.233Z,13.40
2018-04-26T15:03:25.266Z,13.40
2018-04-26T15:05:53.246Z,13.50
2018-04-26T15:08:22.525Z,13.40
2018-04-26T15:10:52.032Z,13.30
2018-04-26T15:13:19.742Z,13.70
2018-04-26T15:15:48.346Z,14.00
2018-04-26T15:18:16.057Z,14.30
2018-04-26T15:20:44.496Z,14.70
2018-04-26T15:23:13.718Z,15.00
2018-04-26T15:25:41.447Z,15.30
2018-04-26T15:28:10.163Z,15.60
2018-04-26T15:30:37.879Z,15.90
2018-04-26T15:33:05.563Z,15.80
2018-04-26T15:35:33.301Z,15.80
2018-04-26T15:40:53.646Z,15.80
2018-04-26T15:43:22.247Z,15.60
2018-04-26T15:45:51.131Z,15.50
2018-04-26T15:48:19.887Z,15.10
2018-04-26T15:51:02.697Z,15.00
2018-04-26T15:53:42.322Z,15.00
2018-04-26T15:56:28.399Z,15.00
2018-04-26T16:02:22.607Z,14.30
2018-04-26T16:08:21.228Z,13.70
2018-04-26T16:11:06.600Z,13.60
2018-04-26T16:13:52.227Z,13.30
2018-04-26T16:16:37.716Z,13.30
2018-04-26T16:19:28.059Z,13.20
2018-04-26T16:22:14.988Z,13.40
2018-04-26T16:24:55.280Z,13.40
2018-04-26T16:27:40.833Z,13.30
2018-04-26T16:30:20.577Z,13.20
2018-04-26T16:33:05.198Z,13.00
2018-04-26T16:35:44.717Z,13.00
2018-04-26T16:38:24.374Z,12.80
2018-04-26T16:40:52.017Z,12.50
2018-04-26T16:43:19.651Z,12.20
2018-04-26T16:45:47.290Z,12.00
2018-04-26T16:48:16.284Z,11.70
2018-04-26T16:50:43.956Z,11.60
2018-04-26T16:53:11.834Z,11.60
2018-04-26T16:55:39.720Z,11.50
2018-04-26T16:58:09.061Z,11.50
2018-04-26T17:00:38.014Z,11.40
2018-04-26T17:03:05.918Z,11.40
2018-04-26T17:05:33.721Z,11.80
2018-04-26T17:08:02.961Z,12.30
2018-04-26T17:10:32.667Z,12.60
2018-04-26T17:13:00.503Z,12.80
2018-04-26T17:15:29.018Z,12.90
2018-04-26T17:17:56.728Z,13.20
2018-04-26T17:20:25.799Z,13.30
2018-04-26T17:22:53.526Z,13.20
2018-04-26T17:25:21.283Z,13.20
2018-04-26T17:27:49.032Z,13.30
2018-04-26T17:30:18.749Z,13.70
2018-04-26T17:32:47.458Z,13.90
2018-04-26T17:35:15.406Z,13.80
2018-04-26T17:37:43.871Z,13.50
2018-04-26T17:40:11.660Z,13.50
2018-04-26T17:42:39.311Z,13.40
2018-04-26T17:45:07.040Z,13.30
2018-04-26T17:47:34.659Z,13.10
2018-04-26T17:50:02.907Z,13.00
2018-04-26T17:52:30.566Z,12.90
2018-04-26T17:54:59.325Z,12.60
2018-04-26T17:57:27.137Z,12.40
2018-04-26T17:59:54.801Z,12.50
2018-04-26T18:02:23.336Z,12.40
2018-04-26T18:04:51.026Z,12.40
2018-04-26T18:07:20.748Z,12.40
2018-04-26T18:09:49.887Z,12.50
2018-04-26T18:12:17.592Z,12.50
2018-04-26T18:14:48.016Z,12.30
2018-04-26T18:17:15.858Z,12.20
2018-04-26T18:19:43.551Z,12.20
2018-04-26T18:22:12.108Z,12.20
2018-04-26T18:24:41.369Z,12.10
2018-04-26T18:27:09.134Z,12.10
2018-04-26T18:29:37.098Z,12.00
2018-04-26T18:32:05.799Z,12.00
2018-04-26T18:34:34.802Z,12.00
2018-04-26T18:37:02.555Z,12.00
2018-04-26T18:39:30.494Z,12.00
2018-04-26T18:41:59.142Z,11.70
2018-04-26T18:44:26.791Z,11.60
2018-04-26T18:46:54.426Z,11.60
2018-04-26T18:49:22.038Z,11.50
2018-04-26T18:51:50.484Z,11.40
2018-04-26T18:54:19.061Z,11.30
2018-04-26T18:56:47.929Z,11.30
2018-04-26T18:59:15.509Z,11.30
2018-04-26T19:01:44.132Z,11.30
2018-04-26T19:04:13.340Z,11.20
2018-04-26T19:06:41.565Z,11.20
2018-04-26T19:09:09.311Z,11.20
2018-04-26T19:11:37.034Z,11.20
2018-04-26T19:14:04.691Z,11.20
2018-04-26T19:16:33.239Z,11.10
2018-04-26T19:19:01.704Z,10.90
2018-04-26T19:21:30.391Z,10.90
2018-04-26T19:23:58.070Z,10.80
2018-04-26T19:26:25.805Z,10.80
2018-04-26T19:28:54.955Z,10.60
2018-04-26T19:31:23.379Z,10.40
2018-04-26T19:33:51.078Z,10.40
2018-04-26T19:36:21.362Z,10.40
2018-04-26T19:38:49.300Z,10.30
2018-04-26T19:41:17.662Z,10.10
2018-04-26T19:43:45.323Z,10.00
2018-04-26T19:46:13.031Z,10.00
2018-04-26T19:48:40.638Z,9.90
2018-04-26T19:51:08.372Z,9.90
2018-04-26T19:53:37.276Z,9.90
2018-04-26T19:56:05.229Z,9.80
2018-04-26T19:58:34.019Z,9.80
2018-04-26T20:01:02.446Z,9.70
2018-04-26T20:03:30.183Z,9.60
2018-04-26T20:05:58.216Z,9.60
2018-04-26T20:08:25.936Z,9.70
2018-04-26T20:10:54.272Z,9.60
2018-04-26T20:13:22.728Z,9.60
2018-04-26T20:15:50.788Z,9.60
2018-04-26T20:18:19.446Z,9.60
2018-04-26T20:20:47.538Z,9.60
2018-04-26T20:23:15.317Z,9.60
2018-04-26T20:25:43.864Z,9.50
2018-04-26T20:28:12.104Z,9.50
2018-04-26T20:30:41.872Z,9.50
2018-04-26T20:33:10.283Z,9.50
2018-04-26T20:35:38.464Z,9.50
2018-04-26T20:38:06.708Z,9.50
2018-04-26T20:40:35.934Z,9.50
2018-04-26T20:43:03.615Z,9.40
2018-04-26T20:45:31.964Z,9.40
2018-04-26T20:47:59.639Z,9.40
2018-04-26T20:50:28.177Z,9.40
2018-04-26T20:52:56.430Z,9.40
2018-04-26T20:55:26.084Z,9.40
2018-04-26T20:57:54.373Z,9.30
2018-04-26T21:00:22.826Z,9.30
2018-04-26T21:02:51.134Z,9.20
2018-04-26T21:05:18.872Z,9.30
2018-04-26T21:07:47.154Z,9.10
2018-04-26T21:10:15.391Z,9.20
2018-04-26T21:12:43.173Z,9.10
2018-04-26T21:15:11.249Z,9.00
2018-04-26T21:17:41.543Z,9.00
2018-04-26T21:20:09.787Z,9.10
2018-04-26T21:22:39.481Z,9.10
2018-04-26T21:25:07.912Z,9.20
2018-04-26T21:27:37.207Z,9.10
2018-04-26T21:30:05.322Z,9.10
2018-04-26T21:32:33.582Z,9.10
2018-04-26T21:35:01.862Z,9.20
2018-04-26T21:37:30.126Z,9.10
2018-04-26T21:39:58.910Z,9.10
2018-04-26T21:42:26.970Z,9.10
2018-04-26T21:44:56.258Z,8.90
2018-04-26T21:47:24.808Z,9.00
2018-04-26T21:50:00.669Z,9.00
2018-04-26T21:52:34.587Z,9.00
2018-04-26T21:55:08.424Z,8.90
2018-04-26T21:57:44.676Z,8.90
2018-04-26T22:00:20.173Z,8.80
2018-04-26T22:02:48.751Z,8.90
2018-04-26T22:08:11.215Z,8.90
2018-04-26T22:10:39.753Z,8.90
2018-04-26T22:13:08.388Z,8.80
2018-04-26T22:15:36.959Z,8.80
2018-04-26T22:18:05.703Z,8.80
2018-04-26T22:20:33.398Z,8.70
2018-04-26T22:23:02.680Z,8.70
2018-04-26T22:25:30.293Z,8.70
2018-04-26T22:27:59.870Z,8.70
2018-04-26T22:30:27.527Z,8.70
2018-04-26T22:32:55.933Z,8.80
2018-04-26T22:35:23.601Z,8.70
2018-04-26T22:37:51.208Z,8.70
2018-04-26T22:40:21.117Z,8.70
2018-04-26T22:42:49.498Z,8.70
2018-04-26T22:45:18.419Z,8.70
2018-04-26T22:47:46.929Z,8.60
2018-04-26T22:50:15.900Z,8.60
2018-04-26T22:52:43.537Z,8.50
2018-04-26T22:55:11.602Z,8.50
2018-04-26T22:57:40.071Z,8.50
2018-04-26T23:00:08.449Z,8.50
2018-04-26T23:02:38.344Z,8.50
2018-04-26T23:05:07.086Z,8.50
2018-04-26T23:07:35.506Z,8.40
2018-04-26T23:10:04.004Z,8.30
2018-04-26T23:12:32.252Z,8.40
2018-04-26T23:15:01.647Z,8.30
2018-04-26T23:17:30.106Z,8.30
2018-04-26T23:19:57.773Z,8.30
2018-04-26T23:22:25.357Z,8.30
2018-04-26T23:24:53.019Z,8.30
2018-04-26T23:27:21.099Z,8.30
2018-04-26T23:29:50.336Z,8.20
2018-04-26T23:32:20.369Z,8.20
2018-04-26T23:34:48.838Z,8.20
2018-04-26T23:37:18.001Z,8.20
2018-04-26T23:39:46.220Z,8.10
2018-04-26T23:42:13.920Z,8.10
2018-04-26T23:44:41.580Z,8.10
2018-04-26T23:47:09.635Z,8.10
2018-04-26T23:49:40.347Z,8.00
2018-04-26T23:52:10.856Z,8.00
2018-04-26T23:54:38.606Z,7.90
2018-04-26T23:57:06.222Z,8.00
2018-04-26T23:59:34.582Z,7.80
